Time;durP1;ratioP1;P1;durP2;ratioP2;P2;SDS_P1;SDS_P2;PMS_P1;PMS_P2;Temp;Humidity;BMP_temperature;BMP_pressure;BME280_temperature;BME280_humidity;BME280_pressure;Samples;Min_cycle;Max_cycle;Signal;HPM_P1;HPM_P2
2022/11/12 00:01:50;;;;;;;11.15;6.63;;;11.00;99.90;;;;;;5012925;28;20214;-74
2022/11/12 00:04:34;;;;;;;9.68;6.35;;;11.00;99.90;;;;;;5014125;28;20166;-75
2022/11/12 00:07:18;;;;;;;6.50;5.53;;;10.90;99.90;;;;;;5013965;28;20171;-74
2022/11/12 00:10:04;;;;;;;5.70;4.78;;;10.90;99.90;;;;;;5013990;28;20225;-73
2022/11/12 00:12:48;;;;;;;6.88;4.65;;;10.90;99.90;;;;;;5013741;28;20186;-73
2022/11/12 00:15:33;;;;;;;5.07;4.57;;;10.90;99.90;;;;;;5013680;28;20174;-74
2022/11/12 00:18:17;;;;;;;7.57;6.15;;;10.90;99.90;;;;;;5013742;28;20170;-74
2022/11/12 00:21:02;;;;;;;8.40;4.85;;;10.90;99.90;;;;;;5013446;28;20210;-74
2022/11/12 00:23:46;;;;;;;7.45;5.40;;;10.90;99.90;;;;;;5013391;28;20162;-74
2022/11/12 00:26:30;;;;;;;8.20;5.20;;;10.80;99.90;;;;;;5012707;28;20634;-74
2022/11/12 00:29:14;;;;;;;6.53;5.15;;;10.80;99.90;;;;;;4995961;28;20166;-74
2022/11/12 00:31:59;;;;;;;6.70;4.55;;;10.80;99.90;;;;;;5014174;28;20221;-74
2022/11/12 00:35:07;;;;;;;7.82;5.90;;;10.80;99.90;;;;;;5018444;28;20174;-74
2022/11/12 00:37:55;;;;;;;5.95;4.78;;;10.70;99.90;;;;;;4982435;28;20216;-74
2022/11/12 00:40:41;;;;;;;8.15;4.47;;;10.80;99.90;;;;;;4974499;28;20640;-74
2022/11/12 00:43:25;;;;;;;5.47;4.80;;;10.80;99.90;;;;;;4974050;28;20582;-74
2022/11/12 00:46:09;;;;;;;5.70;4.40;;;10.80;99.90;;;;;;4974242;28;20212;-74
2022/11/12 00:48:54;;;;;;;4.78;3.53;;;10.80;99.90;;;;;;4973461;28;20187;-74
2022/11/12 00:51:38;;;;;;;7.10;4.07;;;10.70;99.90;;;;;;4989944;28;20191;-74
2022/11/12 00:54:22;;;;;;;6.90;4.60;;;10.70;99.90;;;;;;4974099;28;20172;-74
2022/11/12 00:57:06;;;;;;;5.60;4.40;;;10.60;99.90;;;;;;4973121;28;20176;-74
2022/11/12 00:59:50;;;;;;;4.47;3.50;;;10.60;99.90;;;;;;4974030;28;20171;-75
2022/11/12 01:02:35;;;;;;;4.32;3.65;;;10.60;99.90;;;;;;4973446;28;20187;-76
2022/11/12 01:05:19;;;;;;;5.00;4.50;;;10.60;99.90;;;;;;4973788;28;20167;-76
2022/11/12 01:08:04;;;;;;;7.78;5.25;;;10.60;99.90;;;;;;4973731;28;20167;-76
2022/11/12 01:10:48;;;;;;;6.10;4.97;;;10.60;99.90;;;;;;4973769;28;20183;-76
2022/11/12 01:13:33;;;;;;;4.03;3.58;;;10.50;99.90;;;;;;4973647;28;20163;-76
2022/11/12 01:16:21;;;;;;;4.60;4.05;;;10.60;99.90;;;;;;4973727;28;20191;-73
2022/11/12 01:19:09;;;;;;;5.22;4.72;;;10.50;99.90;;;;;;4973595;28;20178;-76
2022/11/12 01:21:54;;;;;;;4.43;3.20;;;10.50;99.90;;;;;;4973359;28;20285;-76
2022/11/12 01:24:38;;;;;;;5.20;3.88;;;10.50;99.90;;;;;;4956321;28;20175;-76
2022/11/12 01:27:22;;;;;;;6.68;4.07;;;10.50;99.90;;;;;;4973459;28;20168;-76
2022/11/12 01:30:07;;;;;;;6.15;4.80;;;10.40;99.90;;;;;;4956158;28;20230;-76
2022/11/12 01:32:51;;;;;;;5.68;4.20;;;10.50;99.90;;;;;;4973148;28;20174;-76
2022/11/12 01:35:36;;;;;;;4.15;3.75;;;10.40;99.90;;;;;;4972540;28;20176;-73
2022/11/12 01:38:20;;;;;;;4.60;3.65;;;10.40;99.90;;;;;;4973293;28;20818;-74
2022/11/12 01:41:06;;;;;;;4.13;3.72;;;10.40;99.90;;;;;;4973014;28;20208;-76
2022/11/12 01:44:08;;;;;;;3.88;3.42;;;10.50;99.90;;;;;;4973313;28;20168;-74
2022/11/12 01:47:11;;;;;;;5.30;3.60;;;10.40;99.90;;;;;;4973287;28;20167;-74
2022/11/12 01:50:12;;;;;;;4.40;3.63;;;10.40;99.90;;;;;;4955820;28;20172;-75
2022/11/12 01:53:03;;;;;;;5.25;3.40;;;10.40;99.90;;;;;;4972759;28;20163;-75
2022/11/12 01:55:48;;;;;;;12.20;4.68;;;10.40;99.90;;;;;;4972212;28;20160;-74
2022/11/12 01:58:36;;;;;;;5.28;3.58;;;10.40;99.90;;;;;;4972141;28;20589;-74
2022/11/12 02:01:20;;;;;;;5.53;4.68;;;10.40;99.90;;;;;;4972757;28;20207;-75
2022/11/12 02:04:05;;;;;;;4.95;4.22;;;10.30;99.90;;;;;;4975696;28;20636;-74
2022/11/12 02:06:50;;;;;;;7.78;3.55;;;10.30;99.90;;;;;;4973032;28;20218;-73
2022/11/12 02:09:35;;;;;;;5.00;4.50;;;10.30;99.90;;;;;;4972900;28;20527;-74
2022/11/12 02:15:25;;;;;;;6.60;4.80;;;10.20;99.90;;;;;;4973014;28;20171;-74
2022/11/12 02:18:09;;;;;;;5.95;4.00;;;10.20;99.90;;;;;;4972316;28;20683;-74
2022/11/12 02:20:56;;;;;;;4.82;3.92;;;10.20;99.90;;;;;;4964070;28;20217;-74
2022/11/12 02:23:41;;;;;;;6.00;4.47;;;10.20;99.90;;;;;;4992230;28;20206;-74
2022/11/12 02:26:27;;;;;;;4.85;4.32;;;10.20;99.90;;;;;;4992132;28;20162;-74
2022/11/12 02:29:11;;;;;;;5.13;4.18;;;10.20;99.90;;;;;;4992123;28;20166;-74
2022/11/12 02:31:56;;;;;;;5.20;3.95;;;10.20;99.90;;;;;;4991791;28;20191;-74
2022/11/12 02:34:40;;;;;;;4.65;3.78;;;10.10;99.90;;;;;;4992014;28;20167;-74
2022/11/12 02:37:24;;;;;;;4.65;4.20;;;10.10;99.90;;;;;;4992155;28;20175;-74
2022/11/12 02:40:09;;;;;;;5.18;4.50;;;10.10;99.90;;;;;;4991024;28;20195;-74
2022/11/12 02:42:53;;;;;;;4.60;4.18;;;10.10;99.90;;;;;;5007760;28;20611;-74
2022/11/12 02:45:38;;;;;;;4.25;3.75;;;10.10;99.90;;;;;;5018015;23;20217;-75
2022/11/12 02:48:22;;;;;;;6.05;3.88;;;10.10;99.90;;;;;;5022907;28;20170;-76
2022/11/12 02:51:07;;;;;;;6.00;3.88;;;10.00;99.90;;;;;;5016294;28;20208;-76
2022/11/12 02:53:51;;;;;;;5.00;4.50;;;10.00;99.90;;;;;;5031257;28;20265;-75
2022/11/12 02:56:35;;;;;;;7.72;4.32;;;10.00;99.90;;;;;;5031428;28;20225;-76
2022/11/12 02:59:19;;;;;;;6.30;3.90;;;9.90;99.90;;;;;;5031432;28;20170;-76
2022/11/12 03:02:04;;;;;;;4.60;4.10;;;9.90;99.90;;;;;;5030794;28;20680;-75
2022/11/12 03:04:48;;;;;;;4.30;3.80;;;9.90;99.90;;;;;;5013350;28;20780;-75
2022/11/12 03:07:32;;;;;;;6.15;5.43;;;9.90;99.90;;;;;;5031184;28;20275;-76
2022/11/12 03:10:17;;;;;;;7.55;4.25;;;9.90;99.90;;;;;;5013370;28;20633;-76
2022/11/12 03:13:01;;;;;;;6.10;4.70;;;9.90;99.90;;;;;;5013108;28;20204;-75
2022/11/12 03:15:46;;;;;;;5.03;3.80;;;9.90;99.90;;;;;;5033311;28;20205;-75
2022/11/12 03:18:30;;;;;;;6.28;4.88;;;9.90;99.90;;;;;;5035994;28;20613;-75
2022/11/12 03:21:15;;;;;;;5.45;4.32;;;9.90;99.90;;;;;;5013021;28;20209;-75
2022/11/12 03:24:00;;;;;;;5.57;4.55;;;9.90;99.90;;;;;;5013024;28;20174;-76
2022/11/12 03:26:45;;;;;;;6.95;5.50;;;9.80;99.90;;;;;;5013170;28;20193;-76
2022/11/12 03:29:29;;;;;;;4.70;4.20;;;9.80;99.90;;;;;;5031817;28;20193;-76
2022/11/12 03:32:13;;;;;;;5.57;4.35;;;9.80;99.90;;;;;;5016322;28;20224;-76
2022/11/12 03:34:57;;;;;;;4.65;4.13;;;9.80;99.90;;;;;;5034368;28;20189;-76
2022/11/12 03:37:42;;;;;;;5.15;4.65;;;9.80;99.90;;;;;;5016699;28;20178;-76
2022/11/12 03:40:27;;;;;;;8.45;4.20;;;9.80;99.90;;;;;;5034382;28;20205;-76
2022/11/12 03:43:12;;;;;;;5.18;4.00;;;9.80;99.90;;;;;;5018974;28;20248;-75
2022/11/12 03:45:56;;;;;;;5.72;5.00;;;9.80;99.90;;;;;;5019032;28;20209;-76
2022/11/12 03:48:40;;;;;;;5.70;4.10;;;9.80;99.90;;;;;;5034314;28;20169;-76
2022/11/12 03:51:24;;;;;;;4.82;4.32;;;9.80;99.90;;;;;;5034039;28;20173;-76
2022/11/12 03:54:08;;;;;;;5.30;4.80;;;9.80;99.90;;;;;;5016212;28;20197;-75
2022/11/12 03:56:53;;;;;;;4.53;3.63;;;9.70;99.90;;;;;;5038362;28;20174;-75
2022/11/12 03:59:37;;;;;;;5.65;4.78;;;9.70;99.90;;;;;;5034101;28;20177;-75
2022/11/12 04:02:21;;;;;;;4.75;3.80;;;9.70;99.90;;;;;;5015671;28;20182;-75
2022/11/12 04:08:36;;;;;;;7.00;5.15;;;9.70;99.90;;;;;;5033955;28;20174;-76
2022/11/12 04:11:20;;;;;;;5.05;4.55;;;9.60;99.90;;;;;;5033620;28;20610;-75
2022/11/12 04:14:05;;;;;;;6.75;4.15;;;9.60;99.90;;;;;;5015666;28;20185;-75
2022/11/12 04:22:56;;;;;;;5.57;4.70;;;9.60;99.90;;;;;;5033182;28;20165;-76
2022/11/12 04:30:14;;;;;;;8.13;6.18;;;9.60;99.90;;;;;;5033463;28;20524;-76
2022/11/12 04:31:48;;;;;;;5.30;4.30;;;9.50;99.90;;;;;;5037346;28;20225;-75
2022/11/12 04:34:33;;;;;;;6.90;5.07;;;9.50;99.90;;;;;;5034114;28;20170;-76
2022/11/12 04:37:18;;;;;;;8.60;6.35;;;9.40;99.90;;;;;;5033326;28;20193;-75
2022/11/12 04:44:58;;;;;;;9.70;6.50;;;9.40;99.90;;;;;;5033097;28;20169;-76
2022/11/12 04:46:33;;;;;;;7.90;5.57;;;9.30;99.90;;;;;;4936173;29;20208;-75
2022/11/12 04:49:17;;;;;;;6.90;5.63;;;9.30;99.90;;;;;;4932407;29;20276;-75
2022/11/12 04:52:04;;;;;;;5.60;5.10;;;9.30;99.90;;;;;;5007988;28;20182;-75
2022/11/12 04:54:50;;;;;;;5.93;4.22;;;9.30;99.90;;;;;;5013201;28;20186;-76
2022/11/12 04:57:36;;;;;;;5.90;5.30;;;9.30;99.90;;;;;;5013132;28;20163;-75
2022/11/12 05:00:20;;;;;;;7.15;5.05;;;9.20;99.90;;;;;;5012971;28;20548;-75
2022/11/12 05:03:05;;;;;;;6.30;5.40;;;9.20;99.90;;;;;;5011294;28;20626;-75
2022/11/12 05:05:49;;;;;;;6.82;5.57;;;9.20;99.90;;;;;;5012736;28;20193;-75
2022/11/12 05:08:33;;;;;;;6.85;5.75;;;9.10;99.90;;;;;;5012920;28;20171;-75
2022/11/12 05:11:17;;;;;;;6.15;5.55;;;9.10;99.90;;;;;;5015170;28;20178;-76
2022/11/12 05:14:01;;;;;;;6.78;5.28;;;9.10;99.90;;;;;;5012484;28;20607;-75
2022/11/12 05:16:46;;;;;;;6.80;6.10;;;9.10;99.90;;;;;;5012540;28;20197;-75
2022/11/12 05:19:30;;;;;;;8.45;5.35;;;9.00;99.90;;;;;;5012690;28;20174;-75
2022/11/12 05:22:15;;;;;;;6.30;5.65;;;9.00;99.90;;;;;;5012182;28;20205;-75
2022/11/12 05:24:59;;;;;;;7.15;5.18;;;9.00;99.90;;;;;;5011193;28;20190;-75
2022/11/12 05:27:43;;;;;;;5.30;4.80;;;9.00;99.90;;;;;;5011350;28;20209;-75
2022/11/12 05:30:27;;;;;;;7.28;5.80;;;9.00;99.90;;;;;;5012589;28;20228;-76
2022/11/12 05:33:11;;;;;;;5.80;5.15;;;8.90;99.90;;;;;;5012027;28;20174;-75
2022/11/12 05:35:56;;;;;;;7.50;6.72;;;8.90;99.90;;;;;;5012392;28;20186;-76
2022/11/12 05:38:41;;;;;;;6.97;5.53;;;8.90;99.90;;;;;;5012383;28;20178;-76
2022/11/12 05:41:26;;;;;;;7.35;5.63;;;8.90;99.90;;;;;;5012063;28;20194;-76
2022/11/12 05:44:10;;;;;;;5.25;4.43;;;8.80;99.90;;;;;;5011975;28;20626;-75
2022/11/12 05:46:54;;;;;;;7.15;5.60;;;8.80;99.90;;;;;;5016908;28;20585;-75
2022/11/12 05:49:38;;;;;;;6.22;5.20;;;8.80;99.90;;;;;;5012363;28;20170;-75
2022/11/12 05:52:23;;;;;;;7.53;6.18;;;8.80;99.90;;;;;;5009962;28;20179;-76
2022/11/12 05:55:07;;;;;;;6.63;5.38;;;8.80;99.90;;;;;;5011909;28;20182;-76
2022/11/12 05:57:52;;;;;;;7.00;6.20;;;8.70;99.90;;;;;;5010664;28;20260;-75
2022/11/12 06:00:39;;;;;;;9.90;6.28;;;8.70;99.90;;;;;;5011874;28;20189;-76
2022/11/12 06:03:24;;;;;;;9.32;6.07;;;8.70;99.90;;;;;;5011601;28;20162;-75
2022/11/12 06:06:08;;;;;;;7.70;5.32;;;8.70;99.90;;;;;;5012022;28;20277;-75
2022/11/12 06:08:52;;;;;;;9.35;6.30;;;8.60;99.90;;;;;;5011027;28;20301;-75
2022/11/12 06:11:37;;;;;;;6.43;5.72;;;8.60;99.90;;;;;;5011931;28;20162;-75
2022/11/12 06:14:21;;;;;;;5.20;4.60;;;8.60;99.90;;;;;;5012017;28;20178;-75
2022/11/12 06:17:06;;;;;;;9.18;5.97;;;8.50;99.90;;;;;;5010699;28;20189;-75
2022/11/12 06:19:50;;;;;;;6.82;6.13;;;8.50;99.90;;;;;;5011777;28;20166;-75
2022/11/12 06:22:34;;;;;;;10.38;7.72;;;8.50;99.90;;;;;;5010493;28;20213;-75
2022/11/12 06:25:18;;;;;;;7.25;6.00;;;8.40;99.90;;;;;;5016866;28;20194;-75
2022/11/12 06:28:03;;;;;;;6.47;5.60;;;8.30;99.90;;;;;;5011853;28;20525;-75
2022/11/12 06:30:47;;;;;;;7.35;6.40;;;8.40;99.90;;;;;;5011538;28;20205;-75
2022/11/12 06:33:31;;;;;;;7.00;6.15;;;8.30;99.90;;;;;;5011409;28;20166;-75
2022/11/12 06:36:18;;;;;;;6.53;5.90;;;8.30;99.90;;;;;;5011656;28;20182;-76
2022/11/12 06:39:02;;;;;;;6.57;5.85;;;8.30;99.90;;;;;;5011688;28;20202;-75
2022/11/12 06:41:47;;;;;;;6.07;5.13;;;8.30;99.90;;;;;;5010408;28;20198;-75
2022/11/12 06:44:31;;;;;;;7.78;5.40;;;8.30;99.90;;;;;;5010562;28;20720;-75
2022/11/12 06:47:15;;;;;;;6.70;6.00;;;8.30;99.90;;;;;;5010293;28;20182;-76
2022/11/12 06:49:59;;;;;;;7.40;5.15;;;8.30;99.90;;;;;;5011683;28;20224;-75
2022/11/12 06:52:43;;;;;;;6.25;5.18;;;8.30;99.90;;;;;;5011139;28;20556;-76
2022/11/12 06:55:28;;;;;;;5.78;5.18;;;8.30;99.90;;;;;;5011448;28;20189;-76
2022/11/12 06:58:12;;;;;;;8.82;6.50;;;8.30;99.90;;;;;;5011567;28;20254;-76
2022/11/12 07:00:57;;;;;;;6.07;5.47;;;8.20;99.90;;;;;;5016917;28;20194;-75
2022/11/12 07:03:42;;;;;;;6.18;5.45;;;8.20;99.90;;;;;;5011709;28;20557;-75
2022/11/12 07:06:27;;;;;;;5.70;5.20;;;8.20;99.90;;;;;;5015121;28;20247;-75
2022/11/12 07:09:11;;;;;;;5.38;4.85;;;8.20;99.90;;;;;;5014372;28;20500;-75
2022/11/12 07:11:55;;;;;;;10.25;5.10;;;8.20;99.90;;;;;;5013661;28;20729;-75
2022/11/12 07:14:39;;;;;;;4.72;4.20;;;8.20;99.90;;;;;;5014970;28;20174;-76
2022/11/12 07:17:24;;;;;;;6.15;4.85;;;8.30;99.90;;;;;;5015084;28;20658;-75
2022/11/12 07:20:09;;;;;;;5.05;4.53;;;8.30;99.90;;;;;;5014862;28;20533;-75
2022/11/12 07:22:53;;;;;;;5.95;4.97;;;8.30;99.90;;;;;;5014528;28;20166;-75
2022/11/12 07:25:38;;;;;;;5.47;4.53;;;8.30;99.90;;;;;;5014813;28;20681;-75
2022/11/12 07:28:23;;;;;;;5.65;5.05;;;8.30;99.90;;;;;;5013806;28;20174;-76
2022/11/12 07:31:10;;;;;;;5.15;4.65;;;8.30;99.90;;;;;;5013343;28;20180;-77
2022/11/12 07:33:54;;;;;;;6.03;5.38;;;8.40;99.90;;;;;;5013250;28;20177;-76
2022/11/12 07:36:39;;;;;;;6.05;4.82;;;8.40;99.90;;;;;;5014663;28;20190;-76
2022/11/12 07:39:23;;;;;;;6.80;5.18;;;8.40;99.90;;;;;;5019145;28;20698;-77
2022/11/12 07:42:07;;;;;;;5.75;4.68;;;8.50;99.90;;;;;;5014226;28;20536;-74
2022/11/12 07:44:52;;;;;;;5.90;5.15;;;8.50;99.90;;;;;;5013120;28;20210;-74
2022/11/12 07:47:36;;;;;;;5.38;4.30;;;8.60;99.90;;;;;;5014433;28;20162;-74
2022/11/12 07:50:20;;;;;;;5.68;4.63;;;8.60;99.90;;;;;;5014526;28;20178;-75
2022/11/12 07:53:04;;;;;;;5.93;4.63;;;8.60;99.90;;;;;;5013962;28;20217;-74
2022/11/12 07:55:54;;;;;;;5.40;4.85;;;8.70;99.90;;;;;;5014167;28;20273;-76
2022/11/12 07:58:39;;;;;;;5.70;3.88;;;8.70;99.90;;;;;;5014208;28;20205;-76
2022/11/12 08:01:29;;;;;;;4.22;3.78;;;8.80;99.90;;;;;;5013836;28;20273;-76
2022/11/12 08:04:14;;;;;;;7.43;5.53;;;8.90;99.90;;;;;;4998899;28;20540;-76
2022/11/12 08:06:58;;;;;;;5.72;5.13;;;9.00;99.90;;;;;;5013985;28;20158;-75
2022/11/12 08:09:43;;;;;;;7.90;5.70;;;9.00;99.90;;;;;;5013947;28;20189;-77
2022/11/12 08:12:28;;;;;;;5.82;4.88;;;9.10;99.90;;;;;;5013724;28;20562;-77
2022/11/12 08:15:12;;;;;;;5.50;4.70;;;9.20;99.90;;;;;;5016272;28;20549;-76
2022/11/12 08:17:57;;;;;;;7.97;5.07;;;9.30;99.90;;;;;;5012552;28;20171;-76
2022/11/12 08:20:41;;;;;;;7.80;4.57;;;9.30;99.90;;;;;;5013826;28;20225;-75
2022/11/12 08:23:25;;;;;;;6.15;4.55;;;9.40;99.90;;;;;;5012182;28;20236;-77
2022/11/12 08:26:12;;;;;;;5.65;4.38;;;9.50;99.90;;;;;;5012591;28;20257;-76
2022/11/12 08:28:56;;;;;;;6.05;4.85;;;9.60;99.90;;;;;;5013754;28;20162;-76
2022/11/12 08:31:40;;;;;;;6.88;4.90;;;9.70;99.90;;;;;;5012624;28;20200;-76
2022/11/12 08:34:24;;;;;;;4.43;3.67;;;9.70;99.90;;;;;;5016638;28;20532;-77
2022/11/12 08:37:08;;;;;;;4.57;3.85;;;9.90;99.90;;;;;;5008402;28;20182;-76
2022/11/12 08:39:53;;;;;;;9.80;4.68;;;10.00;99.90;;;;;;5005955;28;20646;-76
2022/11/12 08:42:37;;;;;;;9.80;4.90;;;10.00;99.90;;;;;;5012688;28;20646;-76
2022/11/12 08:45:22;;;;;;;4.90;3.53;;;10.10;99.90;;;;;;5013094;28;20898;-76
2022/11/12 08:48:09;;;;;;;4.88;3.70;;;10.20;99.90;;;;;;5013404;28;20170;-76
2022/11/12 08:50:54;;;;;;;4.65;3.63;;;10.30;99.90;;;;;;5013127;28;20182;-76
2022/11/12 08:53:38;;;;;;;6.57;4.40;;;10.40;99.90;;;;;;5000339;28;20201;-76
2022/11/12 08:56:24;;;;;;;5.03;3.97;;;10.50;99.90;;;;;;5011647;28;20265;-76
2022/11/12 08:59:08;;;;;;;5.45;4.45;;;10.60;99.90;;;;;;5021745;28;20173;-76
2022/11/12 09:01:52;;;;;;;5.85;4.38;;;10.60;99.90;;;;;;5035326;23;20213;-75
2022/11/12 09:04:36;;;;;;;4.95;4.50;;;10.80;99.90;;;;;;5028567;28;20166;-75
2022/11/12 09:07:21;;;;;;;5.70;3.50;;;10.90;99.90;;;;;;5023397;28;20239;-76
2022/11/12 09:10:06;;;;;;;5.65;4.88;;;11.00;99.90;;;;;;5023845;28;20189;-75
2022/11/12 09:12:51;;;;;;;4.97;4.25;;;11.20;99.90;;;;;;5001964;28;20174;-75
2022/11/12 09:15:36;;;;;;;7.40;5.07;;;11.30;99.90;;;;;;5032402;28;20648;-75
2022/11/12 09:18:20;;;;;;;4.38;3.88;;;11.50;99.90;;;;;;5014837;28;20170;-75
2022/11/12 09:21:08;;;;;;;4.65;3.50;;;11.60;99.90;;;;;;5011359;28;20213;-76
2022/11/12 09:23:53;;;;;;;5.65;4.70;;;11.80;99.90;;;;;;5000121;28;20169;-75
2022/11/12 09:26:37;;;;;;;6.63;4.25;;;11.90;99.90;;;;;;5013060;28;20540;-76
2022/11/12 09:29:21;;;;;;;4.38;3.65;;;12.00;99.90;;;;;;5029703;28;20174;-75
2022/11/12 09:32:06;;;;;;;4.88;4.05;;;12.20;99.90;;;;;;5029956;28;20194;-75
2022/11/12 09:34:50;;;;;;;5.80;3.33;;;12.20;99.90;;;;;;5031624;28;20169;-76
2022/11/12 09:37:38;;;;;;;8.90;5.05;;;12.30;99.90;;;;;;5031511;28;20177;-76
2022/11/12 09:40:42;;;;;;;4.55;4.10;;;12.40;99.90;;;;;;5031075;28;20205;-76
2022/11/12 09:43:33;;;;;;;5.10;3.75;;;12.50;99.90;;;;;;5019489;28;20564;-76
2022/11/12 09:46:35;;;;;;;6.80;3.87;;;12.60;99.90;;;;;;5013926;28;20182;-76
2022/11/12 09:49:46;;;;;;;4.30;3.58;;;12.70;99.90;;;;;;5032099;28;20568;-76
2022/11/12 09:52:32;;;;;;;4.07;2.90;;;12.80;99.90;;;;;;5008382;28;20199;-76
2022/11/12 09:55:38;;;;;;;5.57;3.63;;;12.90;99.90;;;;;;5032029;28;21115;-76
2022/11/12 09:58:24;;;;;;;3.70;2.77;;;13.00;99.90;;;;;;4975513;28;21114;-76
2022/11/12 10:01:37;;;;;;;3.97;3.10;;;13.20;99.90;;;;;;4991298;28;20650;-76
2022/11/12 10:04:40;;;;;;;4.40;3.57;;;13.40;99.90;;;;;;4993136;28;20166;-76
2022/11/12 10:08:02;;;;;;;3.57;3.03;;;13.40;99.90;;;;;;4994670;28;20636;-77
2022/11/12 10:11:04;;;;;;;5.03;3.30;;;13.50;99.90;;;;;;4994127;28;20594;-76
2022/11/12 10:13:48;;;;;;;3.67;3.13;;;13.50;99.90;;;;;;4993901;28;21127;-77
2022/11/12 10:16:58;;;;;;;4.30;2.50;;;13.70;99.90;;;;;;4994431;28;20562;-77
2022/11/12 10:20:01;;;;;;;3.57;2.97;;;13.80;99.90;;;;;;4994008;28;20749;-77
2022/11/12 10:23:00;;;;;;;4.77;3.70;;;13.90;99.90;;;;;;4993223;28;20578;-77
2022/11/12 10:25:49;;;;;;;6.10;3.30;;;14.00;99.90;;;;;;5018097;28;20584;-77
2022/11/12 10:28:57;;;;;;;4.40;3.13;;;14.00;99.90;;;;;;5012637;28;20650;-77
2022/11/12 10:31:41;;;;;;;4.23;3.83;;;14.10;99.90;;;;;;5020236;28;20628;-77
2022/11/12 10:34:26;;;;;;;3.93;3.10;;;14.20;99.90;;;;;;5030108;28;20560;-76
2022/11/12 10:37:19;;;;;;;5.20;3.70;;;14.20;99.90;;;;;;5005969;28;20597;-76
2022/11/12 10:40:30;;;;;;;4.10;2.90;;;14.30;99.90;;;;;;5021910;28;20949;-77
2022/11/12 10:43:14;;;;;;;5.33;2.87;;;14.50;99.90;;;;;;5009040;28;20615;-77
2022/11/12 10:46:19;;;;;;;3.40;2.77;;;14.60;99.90;;;;;;5013486;28;20583;-77
2022/11/12 10:49:22;;;;;;;3.43;2.13;;;14.60;99.90;;;;;;5015236;28;20596;-76
2022/11/12 10:52:20;;;;;;;7.07;3.70;;;14.60;99.90;;;;;;5017767;28;20623;-77
2022/11/12 10:55:15;;;;;;;4.30;2.83;;;14.60;99.90;;;;;;4981062;28;20628;-76
2022/11/12 10:58:08;;;;;;;5.67;3.13;;;14.60;99.90;;;;;;5022212;28;20679;-75
2022/11/12 11:01:03;;;;;;;3.40;3.10;;;14.60;99.90;;;;;;5019226;28;21014;-74
2022/11/12 11:03:54;;;;;;;3.90;3.30;;;14.60;99.90;;;;;;5000811;28;20599;-75
2022/11/12 11:06:39;;;;;;;3.83;3.40;;;14.80;99.90;;;;;;5035723;28;20921;-76
2022/11/12 11:09:25;;;;;;;5.27;4.07;;;14.80;99.90;;;;;;5019441;28;20920;-76
2022/11/12 11:12:24;;;;;;;6.03;3.40;;;14.90;99.90;;;;;;5018492;28;20604;-76
2022/11/12 11:15:19;;;;;;;3.73;3.40;;;14.90;99.90;;;;;;5030974;28;20588;-76
2022/11/12 11:18:03;;;;;;;5.70;4.17;;;15.00;99.90;;;;;;5014631;28;20584;-76
2022/11/12 11:21:01;;;;;;;6.00;5.07;;;15.10;99.90;;;;;;5027406;28;20713;-76
2022/11/12 11:24:01;;;;;;;4.30;3.70;;;15.10;99.90;;;;;;5011100;28;20581;-75
2022/11/12 11:26:54;;;;;;;4.80;3.03;;;15.10;99.90;;;;;;5014737;28;20627;-75
2022/11/12 11:29:57;;;;;;;3.80;3.20;;;15.10;99.90;;;;;;5014947;28;20569;-75
2022/11/12 11:33:19;;;;;;;4.73;3.47;;;15.20;99.90;;;;;;4996910;28;21137;-75
2022/11/12 11:36:12;;;;;;;5.83;3.87;;;15.20;99.90;;;;;;5015004;28;20676;-75
2022/11/12 11:39:12;;;;;;;5.70;2.80;;;15.20;99.90;;;;;;4997868;28;20577;-75
2022/11/12 11:42:23;;;;;;;7.50;6.17;;;15.30;99.90;;;;;;5016056;28;20636;-74
2022/11/12 11:45:32;;;;;;;5.83;4.43;;;15.40;99.90;;;;;;4995610;28;21186;-75
2022/11/12 11:48:32;;;;;;;8.70;4.10;;;15.40;99.90;;;;;;4996253;28;20562;-77
2022/11/12 11:51:38;;;;;;;5.43;4.07;;;15.40;99.90;;;;;;4996346;28;20700;-77
2022/11/12 11:55:07;;;;;;;8.67;4.70;;;15.40;99.90;;;;;;4994078;28;20582;-74
2022/11/12 11:58:32;;;;;;;5.23;3.60;;;15.30;99.90;;;;;;4994371;28;20642;-74
2022/11/12 12:01:30;;;;;;;4.00;3.60;;;15.30;99.90;;;;;;4975879;28;20682;-74
2022/11/12 12:04:26;;;;;;;4.37;3.60;;;15.30;99.90;;;;;;4993787;28;21148;-74
2022/11/12 12:07:17;;;;;;;5.30;4.00;;;15.30;99.90;;;;;;4993081;28;20566;-73
2022/11/12 12:10:39;;;;;;;3.73;3.33;;;15.40;99.90;;;;;;4994036;28;20570;-72
2022/11/12 12:13:42;;;;;;;5.00;4.50;;;15.40;99.90;;;;;;4992995;28;20598;-72
2022/11/12 12:16:41;;;;;;;5.70;5.10;;;15.50;99.90;;;;;;4994167;28;20566;-72
2022/11/12 12:20:03;;;;;;;5.73;4.30;;;15.50;99.90;;;;;;4993908;28;20566;-72
2022/11/12 12:23:23;;;;;;;5.50;4.40;;;15.60;99.90;;;;;;4976200;28;20594;-72
2022/11/12 12:26:19;;;;;;;4.27;3.80;;;15.60;99.90;;;;;;4979159;28;20584;-73
2022/11/12 12:29:22;;;;;;;5.10;4.27;;;15.60;99.90;;;;;;5009186;28;20577;-73
2022/11/12 12:32:14;;;;;;;4.03;3.63;;;15.70;99.90;;;;;;5003152;28;20651;-73
2022/11/12 12:35:22;;;;;;;7.23;4.00;;;15.70;99.90;;;;;;4996107;28;21148;-73
2022/11/12 12:38:34;;;;;;;5.00;3.40;;;15.70;99.90;;;;;;5013120;28;20987;-73
2022/11/12 12:41:26;;;;;;;4.43;4.00;;;15.70;99.90;;;;;;5013397;28;21138;-73
2022/11/12 12:44:11;;;;;;;6.40;3.80;;;15.80;99.90;;;;;;5012870;28;20990;-74
2022/11/12 12:46:58;;;;;;;5.23;4.40;;;15.90;99.90;;;;;;5013111;28;20561;-73
2022/11/12 12:49:45;;;;;;;4.77;3.37;;;15.90;99.90;;;;;;5007773;28;20589;-74
2022/11/12 12:52:29;;;;;;;4.77;4.17;;;15.90;99.90;;;;;;5012381;28;20577;-74
2022/11/12 12:55:41;;;;;;;4.03;3.23;;;16.00;99.90;;;;;;4997825;28;21020;-73
2022/11/12 12:58:40;;;;;;;5.63;4.67;;;16.10;99.90;;;;;;5025064;28;20598;-74
2022/11/12 13:01:32;;;;;;;4.20;3.80;;;16.20;99.90;;;;;;5019226;28;20745;-74
2022/11/12 13:04:49;;;;;;;3.87;3.47;;;16.10;99.90;;;;;;5012629;28;20573;-73
2022/11/12 13:07:43;;;;;;;3.80;3.23;;;16.20;99.90;;;;;;4993835;28;21016;-73
2022/11/12 13:10:47;;;;;;;5.43;3.90;;;16.20;99.90;;;;;;4992224;28;20676;-73
2022/11/12 13:13:38;;;;;;;4.47;3.90;;;16.20;99.90;;;;;;4999813;28;20991;-74
2022/11/12 13:16:55;;;;;;;5.20;3.80;;;16.30;99.90;;;;;;5013422;28;20728;-74
2022/11/12 13:20:06;;;;;;;4.27;3.87;;;16.30;99.90;;;;;;5001338;28;20940;-74
2022/11/12 13:22:51;;;;;;;3.63;3.20;;;16.30;99.90;;;;;;4972803;28;20618;-73
2022/11/12 13:25:36;;;;;;;7.43;3.30;;;16.30;99.90;;;;;;4973198;28;20606;-74
2022/11/12 13:28:21;;;;;;;5.97;3.57;;;16.30;99.90;;;;;;4973369;28;20574;-74
2022/11/12 13:31:27;;;;;;;4.30;3.13;;;16.40;99.90;;;;;;4955662;28;20615;-73
2022/11/12 13:34:25;;;;;;;4.00;2.93;;;16.40;99.90;;;;;;4989560;28;20609;-74
2022/11/12 13:37:18;;;;;;;4.17;2.93;;;16.40;99.90;;;;;;4991445;28;20585;-73
2022/11/12 13:40:08;;;;;;;2.77;2.47;;;16.50;99.90;;;;;;4977484;28;20613;-73
2022/11/12 13:43:03;;;;;;;5.87;3.27;;;16.50;99.90;;;;;;4991201;28;20590;-73
2022/11/12 13:45:50;;;;;;;6.40;2.80;;;16.60;99.90;;;;;;4977209;28;20741;-74
2022/11/12 13:48:45;;;;;;;5.80;3.10;;;16.60;99.90;;;;;;5008360;28;20616;-73
2022/11/12 13:51:40;;;;;;;3.37;3.07;;;16.60;99.90;;;;;;4996110;28;20622;-73
2022/11/12 13:54:36;;;;;;;3.30;2.27;;;16.70;99.90;;;;;;4977071;28;20594;-72
2022/11/12 13:57:31;;;;;;;3.87;3.50;;;16.70;99.90;;;;;;4988879;28;20582;-73
2022/11/12 14:00:23;;;;;;;3.70;3.20;;;16.70;99.90;;;;;;4994788;28;21164;-74
2022/11/12 14:03:16;;;;;;;5.97;5.07;;;16.80;99.90;;;;;;5011154;28;20688;-74
2022/11/12 14:06:25;;;;;;;7.60;6.23;;;16.70;99.90;;;;;;5011727;28;20680;-74
2022/11/12 14:09:39;;;;;;;8.50;5.30;;;16.80;99.90;;;;;;5017164;28;20604;-73
2022/11/12 14:13:18;;;;;;;7.60;5.40;;;16.80;99.90;;;;;;4996319;28;20632;-74
2022/11/12 14:16:11;;;;;;;8.57;5.60;;;16.90;99.90;;;;;;5001434;28;20613;-73
2022/11/12 14:19:13;;;;;;;7.00;4.60;;;16.90;99.90;;;;;;5015176;28;20607;-72
2022/11/12 14:22:18;;;;;;;6.90;4.80;;;16.90;99.90;;;;;;5017494;28;20643;-73
2022/11/12 14:25:24;;;;;;;5.80;4.60;;;16.90;99.90;;;;;;4999229;28;20625;-73
2022/11/12 14:28:27;;;;;;;6.60;6.00;;;16.90;99.90;;;;;;5016404;28;20613;-73
2022/11/12 14:31:14;;;;;;;6.97;5.73;;;16.90;99.90;;;;;;5010069;28;20624;-73
2022/11/12 14:34:27;;;;;;;7.27;5.03;;;17.00;99.90;;;;;;5010966;28;21125;-72
2022/11/12 14:37:33;;;;;;;4.73;3.17;;;16.90;99.90;;;;;;5011510;28;20639;-73
2022/11/12 14:40:18;;;;;;;4.83;3.37;;;17.00;99.90;;;;;;5010464;28;20625;-73
2022/11/12 14:43:03;;;;;;;4.53;2.13;;;17.10;99.90;;;;;;5009380;28;20667;-74
2022/11/12 14:45:50;;;;;;;5.13;3.10;;;17.10;99.90;;;;;;5010378;28;20581;-74
2022/11/12 14:48:46;;;;;;;4.50;2.40;;;17.10;99.90;;;;;;5010122;28;20581;-74
2022/11/12 14:51:37;;;;;;;3.43;2.23;;;17.20;99.90;;;;;;5019516;28;20620;-73
2022/11/12 14:54:32;;;;;;;4.33;2.23;;;17.20;99.90;;;;;;5018377;28;20625;-73
2022/11/12 14:57:23;;;;;;;3.57;2.33;;;17.10;99.90;;;;;;5022101;28;20967;-73
2022/11/12 15:00:41;;;;;;;5.10;2.60;;;17.20;99.90;;;;;;5008904;28;21190;-73
2022/11/12 15:03:31;;;;;;;3.73;1.90;;;17.10;99.90;;;;;;4991955;28;20684;-74
2022/11/12 15:06:20;;;;;;;1.90;1.50;;;17.20;99.90;;;;;;5010138;28;20635;-73
2022/11/12 15:09:04;;;;;;;3.17;2.30;;;17.10;99.90;;;;;;5004163;23;1134788;-82